»·PEaware :: WAT380 KPDX-KMSO

WAT380 :: KPDX-KMSO

FLIGHT INFORMATION

Flight Status: Arrived
Operator:
Walker Air Transport
More flights by this operator :: More flights under this callsign
Pilot: Spencer M. (27733)
Aircraft: CESSNA 550 CITATION 2/S2/BRAVO
(C550)
More flights by this aircraft type
Origin: KPDX Portland Intl
United States
Destination: KMSO Missoula Intl
United States
More flights between these airports :: More routes between these airports
Route: LAVAA6 PDT MQG T317 MSO
File this flight plan on PilotEdge
Remarks:
Altitude:
(Current/Filed)
25,000ft
Speed:
(Current/Filed)
340kts
Departed: 21-Nov-20 08:18 PM
Arrived: 21-Nov-20 09:34 PM
Distance/Time
Traveled:
362nm/1:16
Distance/Time
To Go:
Arrived

Flight Plot

Page will automatically refresh every two minutes.

Flight plan parsing failed; only flown route is shown


Map Options




Map Legend


Flown Route
Filed Route
Departure Airport
Arrival Airport
Navaid (VOR, NDB)
Fix

Horizontal Profiles

Position Reports

Time Latitude Longitude Heading Altitude Ground
Speed
21-Nov-20 20:01 45.587457 -122.583507 208 28ft 0kts
21-Nov-20 20:02 45.587457 -122.583507 208 28ft 0kts
21-Nov-20 20:03 45.587457 -122.583507 208 28ft 0kts
21-Nov-20 20:04 45.587457 -122.583507 208 28ft 0kts
21-Nov-20 20:05 45.587457 -122.583507 208 28ft 0kts
21-Nov-20 20:06 45.587457 -122.583507 208 28ft 0kts
21-Nov-20 20:06 45.587457 -122.583507 208 28ft 0kts
21-Nov-20 20:07 45.587457 -122.583507 208 28ft 0kts
21-Nov-20 20:08 45.587457 -122.583507 208 28ft 0kts
21-Nov-20 20:09 45.587885 -122.584450 339 28ft 6kts
21-Nov-20 20:10 45.588727 -122.586346 325 28ft 6kts
21-Nov-20 20:11 45.590325 -122.589529 301 28ft 12kts
21-Nov-20 20:12 45.592268 -122.594531 298 28ft 13kts
21-Nov-20 20:13 45.593641 -122.596493 33 28ft 6kts
21-Nov-20 20:14 45.593986 -122.596124 37 28ft 0kts
21-Nov-20 20:15 45.593986 -122.596124 37 28ft 0kts
21-Nov-20 20:16 45.594349 -122.595613 65 28ft 11kts
21-Nov-20 20:17 45.582484 -122.560058 106 1150ft 170kts
21-Nov-20 20:18 45.568174 -122.474744 100 3938ft 243kts
21-Nov-20 20:19 45.551724 -122.383584 105 6532ft 233kts
21-Nov-20 20:20 45.562673 -122.291827 50 9133ft 270kts
21-Nov-20 20:21 45.615371 -122.210799 47 11489ft 287kts
21-Nov-20 20:22 45.662176 -122.118510 64 13786ft 293kts
21-Nov-20 20:23 45.696121 -122.013014 63 16083ft 292kts
21-Nov-20 20:24 45.729812 -121.907956 62 18213ft 292kts
21-Nov-20 20:25 45.746653 -121.795000 89 20223ft 295kts
21-Nov-20 20:26 45.745932 -121.679245 90 22224ft 288kts
21-Nov-20 20:27 45.745219 -121.566860 91 24230ft 277kts
21-Nov-20 20:28 45.744448 -121.456008 91 25308ft 300kts
21-Nov-20 20:29 45.743438 -121.327212 91 25303ft 341kts
21-Nov-20 20:30 45.742188 -121.187010 91 25303ft 362kts
21-Nov-20 20:31 45.740700 -121.041308 91 25386ft 371kts
21-Nov-20 20:32 45.738982 -120.892411 91 25448ft 376kts
21-Nov-20 20:33 45.737047 -120.741935 91 25450ft 380kts
21-Nov-20 20:34 45.734896 -120.590229 91 25450ft 383kts
21-Nov-20 20:35 45.732532 -120.437812 91 25451ft 384kts
21-Nov-20 20:36 45.729947 -120.284377 91 25446ft 385kts
21-Nov-20 20:37 45.727166 -120.131421 91 25444ft 386kts
21-Nov-20 20:38 45.724160 -119.977636 91 25439ft 386kts
21-Nov-20 20:39 45.720961 -119.824485 91 25440ft 386kts
21-Nov-20 20:40 45.717538 -119.670474 91 25441ft 387kts
21-Nov-20 20:41 45.713912 -119.516719 91 25441ft 387kts
21-Nov-20 20:42 45.710073 -119.362734 91 25442ft 387kts
21-Nov-20 20:43 45.706039 -119.209163 92 25437ft 387kts
21-Nov-20 20:44 45.701790 -119.055364 92 25438ft 387kts
21-Nov-20 20:45 45.710636 -118.903988 64 25426ft 383kts
21-Nov-20 20:46 45.756707 -118.766957 60 25413ft 382kts
21-Nov-20 20:47 45.803451 -118.630560 60 25413ft 382kts
21-Nov-20 20:48 45.849963 -118.493319 60 25414ft 383kts
21-Nov-20 20:49 45.896269 -118.355807 60 25415ft 383kts
21-Nov-20 20:50 45.942394 -118.218120 61 25409ft 383kts
21-Nov-20 20:51 45.988285 -118.080410 61 25410ft 383kts
21-Nov-20 20:52 46.034172 -117.941965 61 25424ft 383kts
21-Nov-20 20:53 46.079675 -117.803949 61 25439ft 383kts
21-Nov-20 20:54 46.125162 -117.665255 61 25446ft 383kts
21-Nov-20 20:55 46.170549 -117.526123 61 25452ft 383kts
21-Nov-20 20:56 46.215640 -117.387146 60 25458ft 383kts
21-Nov-20 20:57 46.260768 -117.247283 61 25456ft 383kts
21-Nov-20 20:58 46.305456 -117.108036 61 25457ft 383kts
21-Nov-20 20:59 46.350031 -116.968398 61 25458ft 383kts
21-Nov-20 21:00 46.390255 -116.825348 69 25458ft 386kts
21-Nov-20 21:01 46.420587 -116.676100 70 25459ft 386kts
21-Nov-20 21:02 46.450538 -116.526547 69 25460ft 387kts
21-Nov-20 21:03 46.480267 -116.376967 69 25461ft 387kts
21-Nov-20 21:04 46.509863 -116.226915 70 25455ft 387kts
21-Nov-20 21:05 46.539303 -116.076512 70 25478ft 386kts
21-Nov-20 21:06 46.568385 -115.926767 70 25530ft 385kts
21-Nov-20 21:07 46.597239 -115.777047 70 25540ft 386kts
21-Nov-20 21:08 46.626006 -115.626599 70 25541ft 386kts
21-Nov-20 21:09 46.654539 -115.476164 70 25542ft 386kts
21-Nov-20 21:10 46.682647 -115.326596 70 24158ft 375kts
21-Nov-20 21:11 46.709342 -115.183449 70 22640ft 353kts
21-Nov-20 21:12 46.733276 -115.053928 70 21120ft 313kts
21-Nov-20 21:13 46.754586 -114.937723 70 19485ft 282kts
21-Nov-20 21:14 46.773969 -114.831985 70 17475ft 260kts
21-Nov-20 21:15 46.792357 -114.733612 62 15471ft 243kts
21-Nov-20 21:16 46.840120 -114.684318 356 13506ft 205kts
21-Nov-20 21:17 46.892723 -114.690381 352 12500ft 173kts
21-Nov-20 21:18 46.940882 -114.689332 358 12502ft 174kts
21-Nov-20 21:19 46.992590 -114.678900 6 11530ft 199kts
21-Nov-20 21:20 47.046284 -114.657177 14 11001ft 192kts
21-Nov-20 21:21 47.094819 -114.627380 22 10529ft 202kts
21-Nov-20 21:22 47.140042 -114.588887 29 10499ft 177kts
21-Nov-20 21:23 47.157353 -114.527907 98 10096ft 196kts
21-Nov-20 21:24 47.133398 -114.456230 133 9088ft 198kts
21-Nov-20 21:25 47.096842 -114.399612 133 8324ft 176kts
21-Nov-20 21:26 47.064547 -114.346908 133 7732ft 171kts
21-Nov-20 21:27 47.033650 -114.293487 128 6884ft 174kts
21-Nov-20 21:28 47.006102 -114.244643 134 5863ft 122kts
21-Nov-20 21:29 46.985337 -114.212741 131 4940ft 99kts
21-Nov-20 21:30 46.968441 -114.181086 130 4546ft 103kts
21-Nov-20 21:31 46.949674 -114.149817 129 4034ft 101kts
21-Nov-20 21:32 46.931792 -114.118425 130 3480ft 99kts
21-Nov-20 21:33 46.917907 -114.094431 83 3211ft 9kts
21-Nov-20 21:34 46.918456 -114.093532 35 3211ft 4kts
21-Nov-20 21:35 46.920960 -114.091005 70 3211ft 8kts
21-Nov-20 21:36 46.919813 -114.088688 130 3211ft 12kts

Navigation Log

Ident Type
Flight plan parsing failed, navigation log unavailable